createdAt,value
2019-04-28T00:02:08.566Z,72.63
2019-04-28T00:04:55.746Z,74.81
2019-04-28T00:07:25.062Z,75.64
2019-04-28T00:09:54.350Z,75.64
2019-04-28T00:12:23.648Z,76.54
2019-04-28T00:14:52.948Z,76.54
2019-04-28T00:17:22.249Z,77.25
2019-04-28T00:19:52.129Z,77.25
2019-04-28T00:22:32.025Z,76.98
2019-04-28T00:25:06.030Z,76.80
2019-04-28T00:27:35.331Z,76.69
2019-04-28T00:30:07.557Z,76.56
2019-04-28T00:32:42.810Z,77.42
2019-04-28T00:35:12.142Z,78.18
2019-04-28T00:37:41.834Z,78.18
2019-04-28T00:40:12.470Z,77.27
2019-04-28T00:42:41.718Z,77.29
2019-04-28T00:45:12.662Z,77.29
2019-04-28T00:47:42.788Z,78.47
2019-04-28T00:50:12.565Z,79.72
2019-04-28T00:52:41.971Z,79.59
2019-04-28T00:55:11.329Z,79.87
2019-04-28T00:57:41.012Z,79.69
2019-04-28T01:00:11.955Z,79.69
2019-04-28T01:02:41.902Z,79.70
2019-04-28T01:05:12.656Z,79.60
2019-04-28T01:07:41.965Z,79.15
2019-04-28T01:10:14.764Z,79.55
2019-04-28T01:12:46.502Z,81.09
2019-04-28T01:15:17.341Z,81.09
2019-04-28T01:17:54.262Z,83.73
2019-04-28T01:20:24.880Z,83.73
2019-04-28T01:22:54.136Z,83.15
2019-04-28T01:25:23.346Z,83.20
2019-04-28T01:27:53.960Z,81.39
2019-04-28T01:30:34.378Z,81.39
2019-04-28T01:33:05.220Z,81.08
2019-04-28T01:35:34.392Z,81.50
2019-04-28T01:38:03.616Z,82.55
2019-04-28T01:40:32.806Z,82.88
2019-04-28T01:43:02.110Z,81.95
2019-04-28T01:45:31.380Z,81.41
2019-04-28T01:48:02.278Z,81.51
2019-04-28T01:50:31.651Z,81.68
2019-04-28T01:53:01.048Z,81.86
2019-04-28T01:55:30.283Z,84.50
2019-04-28T01:57:59.711Z,84.50
2019-04-28T02:00:46.842Z,84.46
2019-04-28T02:03:16.102Z,84.83
2019-04-28T02:05:46.608Z,84.54
2019-04-28T02:08:15.798Z,85.39
2019-04-28T02:10:45.182Z,85.68
2019-04-28T02:13:14.370Z,85.64
2019-04-28T02:15:43.599Z,85.79
2019-04-28T02:18:12.799Z,86.19
2019-04-28T02:20:43.683Z,85.90
2019-04-28T02:23:14.543Z,85.90
2019-04-28T02:25:43.829Z,86.32
2019-04-28T02:28:13.035Z,86.00
2019-04-28T02:30:49.215Z,86.86
2019-04-28T02:33:13.222Z,86.95
2019-04-28T02:35:42.621Z,87.08
2019-04-28T02:38:11.898Z,87.72
2019-04-28T02:40:41.189Z,88.04
2019-04-28T02:43:11.457Z,87.02
2019-04-28T02:45:41.392Z,86.71
2019-04-28T02:48:12.379Z,86.26
2019-04-28T02:50:55.307Z,86.01
2019-04-28T02:53:33.775Z,86.63
2019-04-28T02:56:03.383Z,85.70
2019-04-28T02:58:32.707Z,85.35
2019-04-28T03:01:12.561Z,85.79
2019-04-28T03:03:32.947Z,85.21
2019-04-28T03:06:02.245Z,84.42
2019-04-28T03:08:31.547Z,84.01
2019-04-28T03:11:01.220Z,85.06
2019-04-28T03:13:31.365Z,85.06
2019-04-28T03:16:01.817Z,86.77
2019-04-28T03:18:31.863Z,86.77
2019-04-28T03:21:04.219Z,86.98
2019-04-28T03:23:32.250Z,87.27
2019-04-28T03:26:03.164Z,87.46
2019-04-28T03:28:36.889Z,87.36
2019-04-28T03:31:36.583Z,87.25
2019-04-28T03:33:48.033Z,87.10
2019-04-28T03:36:15.390Z,87.50
2019-04-28T03:38:43.281Z,88.65
2019-04-28T03:41:12.504Z,88.89
2019-04-28T03:43:41.820Z,88.68
2019-04-28T03:46:21.433Z,88.20
2019-04-28T03:48:51.131Z,87.77
2019-04-28T03:51:21.326Z,87.39
2019-04-28T03:53:51.614Z,86.71
2019-04-28T03:56:21.099Z,85.95
2019-04-28T03:58:50.589Z,85.55
2019-04-28T04:01:20.695Z,84.92
2019-04-28T04:03:51.492Z,83.73
2019-04-28T04:06:22.680Z,83.67
2019-04-28T04:08:52.034Z,83.67
2019-04-28T04:11:22.887Z,83.83
2019-04-28T04:13:56.164Z,84.28
2019-04-28T04:16:42.023Z,84.28
2019-04-28T04:19:15.609Z,84.13
2019-04-28T04:21:44.801Z,83.94
2019-04-28T04:24:14.015Z,83.80
2019-04-28T04:26:43.237Z,83.71
2019-04-28T04:29:12.575Z,83.72
2019-04-28T04:31:41.819Z,84.35
2019-04-28T04:34:11.086Z,84.35
2019-04-28T04:36:41.824Z,83.99
2019-04-28T04:39:11.234Z,83.85
2019-04-28T04:41:43.429Z,83.85
2019-04-28T04:44:11.407Z,84.10
2019-04-28T04:46:41.460Z,83.95
2019-04-28T04:49:10.858Z,83.95
2019-04-28T04:51:43.326Z,84.57
2019-04-28T04:54:11.024Z,84.92
2019-04-28T04:56:40.333Z,84.92
2019-04-28T04:59:10.265Z,85.49
2019-04-28T05:01:50.340Z,86.34
2019-04-28T05:04:21.193Z,86.34
2019-04-28T05:06:50.398Z,87.70
2019-04-28T05:09:19.752Z,87.93
2019-04-28T05:11:49.946Z,87.96
2019-04-28T05:14:19.831Z,88.50
2019-04-28T05:16:49.821Z,88.36
2019-04-28T05:19:19.880Z,88.23
2019-04-28T05:21:49.811Z,88.07
2019-04-28T05:24:26.986Z,88.58
2019-04-28T05:26:56.178Z,88.58
2019-04-28T05:29:26.831Z,89.45
2019-04-28T05:31:59.723Z,89.45
2019-04-28T05:34:27.227Z,89.65
2019-04-28T05:36:56.431Z,89.96
2019-04-28T05:39:25.630Z,90.22
2019-04-28T05:41:54.847Z,89.85
2019-04-28T05:44:24.071Z,89.85
2019-04-28T05:46:53.270Z,90.02
2019-04-28T05:49:29.895Z,89.69
2019-04-28T05:52:16.775Z,89.69
2019-04-28T05:54:50.068Z,89.33
2019-04-28T05:57:39.833Z,89.33
2019-04-28T06:00:23.339Z,89.62
2019-04-28T06:02:56.819Z,89.57
2019-04-28T06:05:25.091Z,89.57
2019-04-28T06:07:59.627Z,89.75
2019-04-28T06:10:29.913Z,90.01
2019-04-28T06:12:59.741Z,90.01
2019-04-28T06:15:29.552Z,91.16
2019-04-28T06:18:00.138Z,91.35
2019-04-28T06:20:30.341Z,91.56
2019-04-28T06:22:59.639Z,91.76
2019-04-28T06:25:28.877Z,91.76
2019-04-28T06:27:58.142Z,90.98
2019-04-28T06:30:28.366Z,90.98
2019-04-28T06:33:07.579Z,91.59
2019-04-28T06:35:28.514Z,91.59
2019-04-28T06:37:57.718Z,90.98
2019-04-28T06:40:26.923Z,90.57
2019-04-28T06:42:56.132Z,90.28
2019-04-28T06:45:25.398Z,89.97
2019-04-28T06:47:54.620Z,89.97
2019-04-28T06:50:23.783Z,89.75
2019-04-28T06:52:52.990Z,90.24
2019-04-28T06:55:22.208Z,90.79
2019-04-28T06:57:51.419Z,90.43
2019-04-28T07:00:20.720Z,90.31
2019-04-28T07:02:49.900Z,90.73
2019-04-28T07:05:19.121Z,90.78
2019-04-28T07:07:48.384Z,91.09
2019-04-28T07:10:17.584Z,90.97
2019-04-28T07:12:46.800Z,91.43
2019-04-28T07:15:16.103Z,91.48
2019-04-28T07:17:45.326Z,91.86
2019-04-28T07:20:16.525Z,91.91
2019-04-28T07:22:45.727Z,91.69
2019-04-28T07:25:14.933Z,92.33
2019-04-28T07:27:44.167Z,92.40
2019-04-28T07:30:16.264Z,92.29
2019-04-28T07:32:45.488Z,92.23
2019-04-28T07:35:14.697Z,91.99
2019-04-28T07:37:43.901Z,92.10
2019-04-28T07:40:13.269Z,91.95
2019-04-28T07:42:42.487Z,91.61
2019-04-28T07:45:11.795Z,93.05
2019-04-28T07:47:41.059Z,93.04
2019-04-28T07:50:10.522Z,92.66
2019-04-28T07:52:44.525Z,92.69
2019-04-28T07:55:13.722Z,92.99
2019-04-28T07:57:42.919Z,92.21
2019-04-28T08:00:13.980Z,92.39
2019-04-28T08:02:43.191Z,92.25
2019-04-28T08:05:12.471Z,92.38
2019-04-28T08:07:41.679Z,90.41
2019-04-28T08:10:11.145Z,90.41
2019-04-28T08:12:40.363Z,90.21
2019-04-28T08:15:09.847Z,89.14
2019-04-28T08:17:39.051Z,88.01
2019-04-28T08:20:08.488Z,87.97
2019-04-28T08:22:37.751Z,88.43
2019-04-28T08:25:07.275Z,87.38
2019-04-28T08:27:36.470Z,86.36
2019-04-28T08:30:06.306Z,86.36
2019-04-28T08:32:37.176Z,86.01
2019-04-28T08:35:07.341Z,86.69
2019-04-28T08:37:36.563Z,87.42
2019-04-28T08:40:05.957Z,87.12
2019-04-28T08:42:35.129Z,87.12
2019-04-28T08:45:06.811Z,87.01
2019-04-28T08:47:36.004Z,86.02
2019-04-28T08:50:06.356Z,86.02
2019-04-28T08:52:35.607Z,86.96
2019-04-28T08:55:11.725Z,86.96
2019-04-28T08:57:40.955Z,87.21
2019-04-28T09:00:12.463Z,85.12
2019-04-28T09:02:41.734Z,85.12
2019-04-28T09:05:11.111Z,85.71
2019-04-28T09:07:40.321Z,85.71
2019-04-28T09:10:09.764Z,84.97
2019-04-28T09:12:38.964Z,84.03
2019-04-28T09:15:08.735Z,84.03
2019-04-28T09:17:37.969Z,83.89
2019-04-28T09:20:08.670Z,84.52
2019-04-28T09:22:37.903Z,84.71
2019-04-28T09:25:08.105Z,81.90
2019-04-28T09:27:37.371Z,81.90
2019-04-28T09:30:07.079Z,81.60
2019-04-28T09:32:36.375Z,81.60
2019-04-28T09:35:07.053Z,80.75
2019-04-28T09:37:36.231Z,80.56
2019-04-28T09:40:10.722Z,81.67
2019-04-28T09:42:44.323Z,81.67
2019-04-28T09:45:24.336Z,82.38
2019-04-28T09:47:53.695Z,82.23
2019-04-28T09:50:23.001Z,82.42
2019-04-28T09:52:52.270Z,82.35
2019-04-28T09:55:21.550Z,81.70
2019-04-28T09:57:50.820Z,80.93
2019-04-28T10:00:20.155Z,79.69
2019-04-28T10:02:49.551Z,79.69
2019-04-28T10:05:19.026Z,77.33
2019-04-28T10:07:48.279Z,77.33
2019-04-28T10:10:18.036Z,76.90
2019-04-28T10:12:47.342Z,76.90
2019-04-28T10:15:16.923Z,76.07
2019-04-28T10:17:46.207Z,74.52
2019-04-28T10:20:16.280Z,74.52
2019-04-28T10:22:45.609Z,73.61
2019-04-28T10:25:15.243Z,73.61
2019-04-28T10:27:44.485Z,75.17
2019-04-28T10:30:14.431Z,75.32
2019-04-28T10:32:43.719Z,73.98
2019-04-28T10:35:13.505Z,73.98
2019-04-28T10:37:45.461Z,75.17
2019-04-28T10:40:21.015Z,76.64
2019-04-28T10:42:50.263Z,76.64
2019-04-28T10:45:24.058Z,74.99
2019-04-28T10:47:53.367Z,74.99
2019-04-28T10:50:22.598Z,75.40
2019-04-28T10:52:51.955Z,76.48
2019-04-28T10:55:21.309Z,77.02
2019-04-28T10:57:50.523Z,74.95
2019-04-28T11:00:21.565Z,76.12
2019-04-28T11:02:58.534Z,76.55
2019-04-28T11:05:32.448Z,76.88
2019-04-28T11:08:03.327Z,77.33
2019-04-28T11:10:32.591Z,77.08
2019-04-28T11:13:01.883Z,77.43
2019-04-28T11:15:32.835Z,77.47
2019-04-28T11:18:02.379Z,77.67
2019-04-28T11:20:32.176Z,77.40
2019-04-28T11:23:04.009Z,75.24
2019-04-28T11:25:33.308Z,74.63
2019-04-28T11:28:02.545Z,76.36
2019-04-28T11:30:31.707Z,76.36
2019-04-28T11:33:20.361Z,74.58
2019-04-28T11:35:50.683Z,74.56
2019-04-28T11:38:21.468Z,74.16
2019-04-28T11:40:50.772Z,73.01
2019-04-28T11:43:20.041Z,72.34
2019-04-28T11:45:49.429Z,71.97
2019-04-28T11:48:18.622Z,70.74
2019-04-28T11:50:47.924Z,70.03
2019-04-28T11:53:17.132Z,70.39
2019-04-28T11:55:46.357Z,71.04
2019-04-28T11:58:15.724Z,69.15
2019-04-28T12:00:45.146Z,68.84
2019-04-28T12:03:14.446Z,68.77
2019-04-28T12:05:45.387Z,68.86
2019-04-28T12:08:14.683Z,70.16
2019-04-28T12:10:57.239Z,70.08
2019-04-28T12:13:46.254Z,69.74
2019-04-28T12:16:23.177Z,68.87
2019-04-28T12:19:10.209Z,69.41
2019-04-28T12:21:39.552Z,69.69
2019-04-28T12:24:09.125Z,69.36
2019-04-28T12:26:38.424Z,69.69
2019-04-28T12:29:07.721Z,67.58
2019-04-28T12:31:37.001Z,67.68
2019-04-28T12:34:06.243Z,67.45
2019-04-28T12:36:35.470Z,66.71
2019-04-28T12:39:08.865Z,66.93
2019-04-28T12:41:38.407Z,67.65
2019-04-28T12:44:08.382Z,64.47
2019-04-28T12:46:37.785Z,65.41
2019-04-28T12:49:08.661Z,67.71
2019-04-28T12:51:38.093Z,68.00
2019-04-28T12:54:09.059Z,68.30
2019-04-28T12:56:38.411Z,68.30
2019-04-28T12:59:18.397Z,68.47
2019-04-28T13:02:01.239Z,68.68
2019-04-28T13:04:32.177Z,68.02
2019-04-28T13:07:02.721Z,68.02
2019-04-28T13:09:32.713Z,67.96
2019-04-28T13:12:02.139Z,68.39
2019-04-28T13:14:31.783Z,68.71
2019-04-28T13:17:01.141Z,69.42
2019-04-28T13:19:30.413Z,70.26
2019-04-28T13:21:59.868Z,69.95
2019-04-28T13:24:29.192Z,69.95
2019-04-28T13:26:58.371Z,70.55
2019-04-28T13:29:27.568Z,69.62
2019-04-28T13:31:56.818Z,68.86
2019-04-28T13:34:27.988Z,69.28
2019-04-28T13:36:57.309Z,69.28
2019-04-28T13:39:33.737Z,68.26
2019-04-28T13:42:03.145Z,67.74
2019-04-28T13:44:50.159Z,67.33
2019-04-28T13:47:19.549Z,67.33
2019-04-28T13:49:51.354Z,67.15
2019-04-28T13:52:20.628Z,66.63
2019-04-28T13:54:51.459Z,67.17
2019-04-28T13:57:20.689Z,66.67
2019-04-28T13:59:51.511Z,66.67
2019-04-28T14:02:41.324Z,67.09
2019-04-28T14:05:24.285Z,67.24
2019-04-28T14:07:53.585Z,66.76
2019-04-28T14:10:22.797Z,66.76
2019-04-28T14:12:52.139Z,67.20
2019-04-28T14:15:21.316Z,67.20
2019-04-28T14:17:50.555Z,67.34
2019-04-28T14:20:19.802Z,66.30
2019-04-28T14:22:48.926Z,66.33
2019-04-28T14:25:18.140Z,66.10
2019-04-28T14:27:47.318Z,64.76
2019-04-28T14:30:17.687Z,64.61
2019-04-28T14:32:46.918Z,64.28
2019-04-28T14:35:16.713Z,63.30
2019-04-28T14:37:45.942Z,63.19
2019-04-28T14:40:15.406Z,63.44
2019-04-28T14:42:46.564Z,62.96
2019-04-28T14:45:17.595Z,63.03
2019-04-28T14:47:47.117Z,63.33
2019-04-28T14:50:16.396Z,61.82
2019-04-28T14:52:45.632Z,60.93
2019-04-28T14:55:15.105Z,60.80
2019-04-28T14:57:44.337Z,61.12
2019-04-28T15:00:15.645Z,61.11
2019-04-28T15:02:55.214Z,61.65
2019-04-28T15:05:39.287Z,62.49
2019-04-28T15:08:16.060Z,62.32
2019-04-28T15:10:52.699Z,61.88
2019-04-28T15:13:23.372Z,61.36
2019-04-28T15:15:56.688Z,61.59
2019-04-28T15:18:25.951Z,62.30
2019-04-28T15:20:55.235Z,62.10
2019-04-28T15:23:24.478Z,62.16
2019-04-28T15:25:54.838Z,61.74
2019-04-28T15:28:24.144Z,60.17
2019-04-28T15:30:53.362Z,60.17
2019-04-28T15:33:22.820Z,60.39
2019-04-28T15:35:52.013Z,60.26
2019-04-28T15:38:21.126Z,60.86
2019-04-28T15:40:50.431Z,59.39
2019-04-28T15:43:19.700Z,59.62
2019-04-28T15:45:48.897Z,59.83
2019-04-28T15:48:18.104Z,58.74
2019-04-28T15:50:47.411Z,58.91
2019-04-28T15:53:16.650Z,59.09
2019-04-28T15:56:02.462Z,58.69
2019-04-28T15:58:33.594Z,59.25
2019-04-28T16:01:02.997Z,59.28
2019-04-28T16:03:32.202Z,59.68
2019-04-28T16:06:01.496Z,60.72
2019-04-28T16:08:30.695Z,60.03
2019-04-28T16:10:59.869Z,59.69
2019-04-28T16:13:29.084Z,59.23
2019-04-28T16:15:58.297Z,59.51
2019-04-28T16:18:27.696Z,59.22
2019-04-28T16:20:56.894Z,59.16
2019-04-28T16:23:26.155Z,59.04
2019-04-28T16:25:55.389Z,59.38
2019-04-28T16:28:24.587Z,60.50
2019-04-28T16:30:53.826Z,60.56
2019-04-28T16:33:23.089Z,60.86
2019-04-28T16:35:52.286Z,59.00
2019-04-28T16:38:21.492Z,61.59
2019-04-28T16:40:54.985Z,61.59
2019-04-28T16:43:27.582Z,61.39
2019-04-28T16:45:56.777Z,61.48
2019-04-28T16:48:25.995Z,62.39
2019-04-28T16:50:55.261Z,62.53
2019-04-28T16:53:25.278Z,62.53
2019-04-28T16:55:56.176Z,62.21
2019-04-28T17:01:38.717Z,63.58
2019-04-28T17:04:07.946Z,63.58
2019-04-28T17:06:37.261Z,65.53
2019-04-28T17:09:07.569Z,65.53
2019-04-28T17:11:36.767Z,66.40
2019-04-28T17:14:05.974Z,67.32
2019-04-28T17:16:35.179Z,67.32
2019-04-28T17:19:04.553Z,67.33
2019-04-28T17:21:33.871Z,67.32
2019-04-28T17:24:03.217Z,66.63
2019-04-28T17:26:32.462Z,67.29
2019-04-28T17:29:01.762Z,68.18
2019-04-28T17:31:30.978Z,68.20
2019-04-28T17:34:00.281Z,66.55
2019-04-28T17:36:29.581Z,66.91
2019-04-28T17:38:58.721Z,67.97
2019-04-28T17:41:28.116Z,69.01
2019-04-28T17:43:57.309Z,70.27
2019-04-28T17:46:26.571Z,72.03
2019-04-28T17:48:57.509Z,73.51
2019-04-28T17:51:26.700Z,76.27
2019-04-28T17:53:56.014Z,78.45
2019-04-28T17:56:25.209Z,79.40
2019-04-28T17:58:54.422Z,79.27
2019-04-28T18:01:25.263Z,80.02
2019-04-28T18:03:58.641Z,83.01
2019-04-28T18:06:29.514Z,83.01
2019-04-28T18:08:58.712Z,84.39
2019-04-28T18:11:28.086Z,84.56
2019-04-28T18:13:57.386Z,84.56
2019-04-28T18:16:40.048Z,84.61
2019-04-28T18:19:16.712Z,85.00
2019-04-28T18:21:45.966Z,85.12
2019-04-28T18:24:15.184Z,84.76
2019-04-28T18:26:44.380Z,84.76
2019-04-28T18:29:13.578Z,85.59
2019-04-28T18:31:47.268Z,84.65
2019-04-28T18:34:18.137Z,84.68
2019-04-28T18:37:05.567Z,84.68
2019-04-28T18:39:52.615Z,84.80
2019-04-28T18:42:26.651Z,83.96
2019-04-28T18:44:55.958Z,84.63
2019-04-28T18:47:25.189Z,83.71
2019-04-28T18:49:54.420Z,83.71
2019-04-28T18:52:23.672Z,84.22
2019-04-28T18:54:52.956Z,84.36
2019-04-28T18:57:22.167Z,84.36
2019-04-28T18:59:51.358Z,85.15
2019-04-28T19:02:22.312Z,85.15
2019-04-28T19:04:51.602Z,85.39
2019-04-28T19:07:49.983Z,85.39
2019-04-28T19:10:40.223Z,85.38
2019-04-28T19:13:11.521Z,85.45
2019-04-28T19:15:54.336Z,84.92
2019-04-28T19:18:27.941Z,84.92
2019-04-28T19:20:57.150Z,85.00
2019-04-28T19:23:26.380Z,84.98
2019-04-28T19:25:55.632Z,84.98
2019-04-28T19:28:24.862Z,85.18
2019-04-28T19:30:54.415Z,84.83
2019-04-28T19:33:23.646Z,85.03
2019-04-28T19:35:53.048Z,85.03
2019-04-28T19:38:22.243Z,83.54
2019-04-28T19:40:51.529Z,83.54
2019-04-28T19:43:20.740Z,83.83
2019-04-28T19:45:51.514Z,84.68
2019-04-28T19:48:20.674Z,84.38
2019-04-28T19:50:49.873Z,84.22
2019-04-28T19:53:19.183Z,83.71
2019-04-28T19:55:56.039Z,83.71
2019-04-28T19:58:35.986Z,83.42
2019-04-28T20:01:12.615Z,83.48
2019-04-28T20:03:41.881Z,84.18
2019-04-28T20:06:11.111Z,85.37
2019-04-28T20:08:40.367Z,84.07
2019-04-28T20:11:09.573Z,84.07
2019-04-28T20:13:38.792Z,82.98
2019-04-28T20:16:08.083Z,82.43
2019-04-28T20:18:37.305Z,82.35
2019-04-28T20:21:06.599Z,82.13
2019-04-28T20:23:35.868Z,82.12
2019-04-28T20:26:05.172Z,81.91
2019-04-28T20:28:34.415Z,82.00
2019-04-28T20:31:03.667Z,81.91
2019-04-28T20:33:32.867Z,82.04
2019-04-28T20:36:06.676Z,82.37
2019-04-28T20:38:35.875Z,82.16
2019-04-28T20:41:12.583Z,82.01
2019-04-28T20:43:41.767Z,82.19
2019-04-28T20:46:10.991Z,82.82
2019-04-28T20:48:40.234Z,82.94
2019-04-28T20:51:09.444Z,83.42
2019-04-28T20:53:38.687Z,83.32
2019-04-28T20:56:07.928Z,83.27
2019-04-28T20:58:37.260Z,83.54
2019-04-28T21:01:06.523Z,83.39
2019-04-28T21:03:38.495Z,82.89
2019-04-28T21:06:06.757Z,82.18
2019-04-28T21:08:35.982Z,81.47
2019-04-28T21:11:05.272Z,81.51
2019-04-28T21:13:52.576Z,82.01
2019-04-28T21:16:22.019Z,82.28
2019-04-28T21:18:51.215Z,82.28
2019-04-28T21:21:20.445Z,82.21
2019-04-28T21:23:49.687Z,82.32
2019-04-28T21:26:18.999Z,82.78
2019-04-28T21:28:48.279Z,83.66
2019-04-28T21:31:17.507Z,84.15
2019-04-28T21:33:46.712Z,84.01
2019-04-28T21:36:15.920Z,84.01
2019-04-28T21:38:46.783Z,84.65
2019-04-28T21:41:16.021Z,84.65
2019-04-28T21:43:46.866Z,85.00
2019-04-28T21:46:25.694Z,85.33
2019-04-28T21:48:56.677Z,85.33
2019-04-28T21:51:25.878Z,85.91
2019-04-28T21:53:55.094Z,86.14
2019-04-28T21:56:24.395Z,86.86
2019-04-28T21:58:53.688Z,86.49
2019-04-28T22:01:23.609Z,86.49
2019-04-28T22:03:52.884Z,86.26
2019-04-28T22:06:22.123Z,85.99
2019-04-28T22:08:51.406Z,86.06
2019-04-28T22:11:22.646Z,86.06
2019-04-28T22:13:51.952Z,86.41
2019-04-28T22:16:21.204Z,86.12
2019-04-28T22:18:50.440Z,86.12
2019-04-28T22:21:19.682Z,86.02
2019-04-28T22:23:56.276Z,86.02
2019-04-28T22:26:45.407Z,86.27
2019-04-28T22:29:15.170Z,86.96
2019-04-28T22:31:44.966Z,86.47
2019-04-28T22:34:15.193Z,87.66
2019-04-28T22:36:45.517Z,87.98
2019-04-28T22:39:15.244Z,87.98
2019-04-28T22:41:44.645Z,88.41
2019-04-28T22:44:14.006Z,88.61
2019-04-28T22:46:43.302Z,88.62
2019-04-28T22:49:14.492Z,88.62
2019-04-28T22:51:43.722Z,88.72
2019-04-28T22:54:14.624Z,89.79
